sensor_id;sensor_type;location;lat;lon;timestamp;temperature;humidity
15690;DHT22;7945;48.816;11.506;2023-05-03T00:00:41;12.10;99.90
15690;DHT22;7945;48.816;11.506;2023-05-03T00:03:09;12.10;99.90
15690;DHT22;7945;48.816;11.506;2023-05-03T00:05:36;12.10;99.90
15690;DHT22;7945;48.816;11.506;2023-05-03T00:08:04;12.10;99.90
15690;DHT22;7945;48.816;11.506;2023-05-03T00:10:31;12.10;99.90
15690;DHT22;7945;48.816;11.506;2023-05-03T00:12:58;12.00;99.90
15690;DHT22;7945;48.816;11.506;2023-05-03T00:15:25;12.00;99.90
15690;DHT22;7945;48.816;11.506;2023-05-03T00:17:51;11.90;99.90
15690;DHT22;7945;48.816;11.506;2023-05-03T00:20:18;11.90;99.90
15690;DHT22;7945;48.816;11.506;2023-05-03T00:22:45;11.90;99.90
15690;DHT22;7945;48.816;11.506;2023-05-03T00:25:13;11.90;99.90
15690;DHT22;7945;48.816;11.506;2023-05-03T00:27:40;11.90;99.90
15690;DHT22;7945;48.816;11.506;2023-05-03T00:30:07;11.90;99.90
15690;DHT22;7945;48.816;11.506;2023-05-03T00:32:35;11.90;99.90
15690;DHT22;7945;48.816;11.506;2023-05-03T00:35:01;11.90;99.90
15690;DHT22;7945;48.816;11.506;2023-05-03T00:37:28;11.80;99.90
15690;DHT22;7945;48.816;11.506;2023-05-03T00:39:55;11.80;99.90
15690;DHT22;7945;48.816;11.506;2023-05-03T00:42:23;11.80;99.90
15690;DHT22;7945;48.816;11.506;2023-05-03T00:44:50;11.70;99.90
15690;DHT22;7945;48.816;11.506;2023-05-03T00:47:17;11.70;99.90
15690;DHT22;7945;48.816;11.506;2023-05-03T00:49:43;11.80;99.90
15690;DHT22;7945;48.816;11.506;2023-05-03T00:52:10;11.70;99.90
15690;DHT22;7945;48.816;11.506;2023-05-03T00:54:38;11.70;99.90
15690;DHT22;7945;48.816;11.506;2023-05-03T00:57:05;11.70;99.90
15690;DHT22;7945;48.816;11.506;2023-05-03T00:59:33;11.70;99.90
15690;DHT22;7945;48.816;11.506;2023-05-03T01:02:00;11.70;99.90
15690;DHT22;7945;48.816;11.506;2023-05-03T01:04:27;11.60;99.90
15690;DHT22;7945;48.816;11.506;2023-05-03T01:07:02;11.60;99.90
15690;DHT22;7945;48.816;11.506;2023-05-03T01:09:38;11.60;99.90
15690;DHT22;7945;48.816;11.506;2023-05-03T01:12:18;11.50;99.90
15690;DHT22;7945;48.816;11.506;2023-05-03T01:14:56;11.50;99.90
15690;DHT22;7945;48.816;11.506;2023-05-03T01:17:27;11.50;99.90
15690;DHT22;7945;48.816;11.506;2023-05-03T01:19:59;11.40;99.90
15690;DHT22;7945;48.816;11.506;2023-05-03T01:25:16;11.30;99.90
15690;DHT22;7945;48.816;11.506;2023-05-03T01:27:43;11.30;99.90
15690;DHT22;7945;48.816;11.506;2023-05-03T01:30:11;11.30;99.90
15690;DHT22;7945;48.816;11.506;2023-05-03T01:32:48;11.30;99.90
15690;DHT22;7945;48.816;11.506;2023-05-03T01:35:22;11.30;99.90
15690;DHT22;7945;48.816;11.506;2023-05-03T01:37:50;11.30;99.90
15690;DHT22;7945;48.816;11.506;2023-05-03T01:40:20;11.30;99.90
15690;DHT22;7945;48.816;11.506;2023-05-03T01:42:49;11.30;99.90
15690;DHT22;7945;48.816;11.506;2023-05-03T01:45:17;11.30;99.90
15690;DHT22;7945;48.816;11.506;2023-05-03T01:47:44;11.30;99.90
15690;DHT22;7945;48.816;11.506;2023-05-03T01:50:10;11.30;99.90
15690;DHT22;7945;48.816;11.506;2023-05-03T01:52:37;11.30;99.90
15690;DHT22;7945;48.816;11.506;2023-05-03T01:55:05;11.30;99.90
15690;DHT22;7945;48.816;11.506;2023-05-03T01:57:33;11.30;99.90
15690;DHT22;7945;48.816;11.506;2023-05-03T02:00:00;11.30;99.90
15690;DHT22;7945;48.816;11.506;2023-05-03T02:02:26;11.30;99.90
15690;DHT22;7945;48.816;11.506;2023-05-03T02:04:53;11.30;99.90
15690;DHT22;7945;48.816;11.506;2023-05-03T02:07:20;11.30;99.90
15690;DHT22;7945;48.816;11.506;2023-05-03T02:09:47;11.30;99.90
15690;DHT22;7945;48.816;11.506;2023-05-03T02:12:14;11.30;99.90
15690;DHT22;7945;48.816;11.506;2023-05-03T02:14:42;11.20;99.90
15690;DHT22;7945;48.816;11.506;2023-05-03T02:17:08;11.20;99.90
15690;DHT22;7945;48.816;11.506;2023-05-03T02:19:36;11.20;99.90
15690;DHT22;7945;48.816;11.506;2023-05-03T02:22:02;11.20;99.90
15690;DHT22;7945;48.816;11.506;2023-05-03T02:24:29;11.10;99.90
15690;DHT22;7945;48.816;11.506;2023-05-03T02:26:56;11.20;99.90
15690;DHT22;7945;48.816;11.506;2023-05-03T02:29:23;11.10;99.90
15690;DHT22;7945;48.816;11.506;2023-05-03T02:31:51;11.10;99.90
15690;DHT22;7945;48.816;11.506;2023-05-03T02:34:18;11.10;99.90
15690;DHT22;7945;48.816;11.506;2023-05-03T02:36:45;11.10;99.90
15690;DHT22;7945;48.816;11.506;2023-05-03T02:39:11;11.10;99.90
15690;DHT22;7945;48.816;11.506;2023-05-03T02:41:38;11.00;99.90
15690;DHT22;7945;48.816;11.506;2023-05-03T02:44:05;11.00;99.90
15690;DHT22;7945;48.816;11.506;2023-05-03T02:46:32;10.90;99.90
15690;DHT22;7945;48.816;11.506;2023-05-03T02:49:00;10.90;99.90
15690;DHT22;7945;48.816;11.506;2023-05-03T02:51:26;10.80;99.90
15690;DHT22;7945;48.816;11.506;2023-05-03T02:53:53;10.70;99.90
15690;DHT22;7945;48.816;11.506;2023-05-03T02:56:20;10.70;99.90
15690;DHT22;7945;48.816;11.506;2023-05-03T02:58:47;10.70;99.90
15690;DHT22;7945;48.816;11.506;2023-05-03T03:01:13;10.80;99.90
15690;DHT22;7945;48.816;11.506;2023-05-03T03:03:40;10.90;99.90
15690;DHT22;7945;48.816;11.506;2023-05-03T03:06:08;10.90;99.90
15690;DHT22;7945;48.816;11.506;2023-05-03T03:08:35;10.80;99.90
15690;DHT22;7945;48.816;11.506;2023-05-03T03:11:02;10.80;99.90
15690;DHT22;7945;48.816;11.506;2023-05-03T03:13:29;10.70;99.90
15690;DHT22;7945;48.816;11.506;2023-05-03T03:15:56;10.70;99.90
15690;DHT22;7945;48.816;11.506;2023-05-03T03:18:22;10.70;99.90
15690;DHT22;7945;48.816;11.506;2023-05-03T03:20:49;10.70;99.90
15690;DHT22;7945;48.816;11.506;2023-05-03T03:23:17;10.70;99.90
15690;DHT22;7945;48.816;11.506;2023-05-03T03:25:44;10.70;99.90
15690;DHT22;7945;48.816;11.506;2023-05-03T03:28:10;10.70;99.90
15690;DHT22;7945;48.816;11.506;2023-05-03T03:30:37;10.60;99.90
15690;DHT22;7945;48.816;11.506;2023-05-03T03:33:04;10.60;99.90
15690;DHT22;7945;48.816;11.506;2023-05-03T03:35:32;10.60;99.90
15690;DHT22;7945;48.816;11.506;2023-05-03T03:37:58;10.60;99.90
15690;DHT22;7945;48.816;11.506;2023-05-03T03:40:27;10.50;99.90
15690;DHT22;7945;48.816;11.506;2023-05-03T03:42:53;10.50;99.90
15690;DHT22;7945;48.816;11.506;2023-05-03T03:45:20;10.50;99.90
15690;DHT22;7945;48.816;11.506;2023-05-03T03:47:47;10.50;99.90
15690;DHT22;7945;48.816;11.506;2023-05-03T03:50:14;10.40;99.90
15690;DHT22;7945;48.816;11.506;2023-05-03T03:52:41;10.40;99.90
15690;DHT22;7945;48.816;11.506;2023-05-03T03:55:08;10.40;99.90
15690;DHT22;7945;48.816;11.506;2023-05-03T03:57:36;10.40;99.90
15690;DHT22;7945;48.816;11.506;2023-05-03T04:00:03;10.40;99.90
15690;DHT22;7945;48.816;11.506;2023-05-03T04:02:35;10.40;99.90
15690;DHT22;7945;48.816;11.506;2023-05-03T04:05:02;10.40;99.90
15690;DHT22;7945;48.816;11.506;2023-05-03T04:07:29;10.40;99.90
15690;DHT22;7945;48.816;11.506;2023-05-03T04:09:55;10.40;99.90
15690;DHT22;7945;48.816;11.506;2023-05-03T04:12:23;10.30;99.90
15690;DHT22;7945;48.816;11.506;2023-05-03T04:14:51;10.40;99.90
15690;DHT22;7945;48.816;11.506;2023-05-03T04:17:18;10.40;99.90
15690;DHT22;7945;48.816;11.506;2023-05-03T04:19:44;10.40;99.90
15690;DHT22;7945;48.816;11.506;2023-05-03T04:22:11;10.40;99.90
15690;DHT22;7945;48.816;11.506;2023-05-03T04:24:38;10.40;99.90
15690;DHT22;7945;48.816;11.506;2023-05-03T04:27:05;10.40;99.90
15690;DHT22;7945;48.816;11.506;2023-05-03T04:29:33;10.40;99.90
15690;DHT22;7945;48.816;11.506;2023-05-03T04:32:01;10.40;99.90
15690;DHT22;7945;48.816;11.506;2023-05-03T04:34:28;10.40;99.90
15690;DHT22;7945;48.816;11.506;2023-05-03T04:36:55;10.50;99.90
15690;DHT22;7945;48.816;11.506;2023-05-03T04:39:22;10.50;99.90
15690;DHT22;7945;48.816;11.506;2023-05-03T04:41:49;10.50;99.90
15690;DHT22;7945;48.816;11.506;2023-05-03T04:44:16;10.60;99.90
15690;DHT22;7945;48.816;11.506;2023-05-03T04:46:43;10.60;99.90
15690;DHT22;7945;48.816;11.506;2023-05-03T04:49:11;10.70;99.90
15690;DHT22;7945;48.816;11.506;2023-05-03T04:51:38;10.70;99.90
15690;DHT22;7945;48.816;11.506;2023-05-03T04:54:05;10.80;99.90
15690;DHT22;7945;48.816;11.506;2023-05-03T04:56:31;11.10;99.90
15690;DHT22;7945;48.816;11.506;2023-05-03T04:59:00;11.70;99.90
15690;DHT22;7945;48.816;11.506;2023-05-03T05:01:28;12.40;99.90
15690;DHT22;7945;48.816;11.506;2023-05-03T05:03:55;13.20;99.90
15690;DHT22;7945;48.816;11.506;2023-05-03T05:06:23;14.00;99.60
15690;DHT22;7945;48.816;11.506;2023-05-03T05:08:50;14.80;98.40
15690;DHT22;7945;48.816;11.506;2023-05-03T05:11:17;15.70;97.20
15690;DHT22;7945;48.816;11.506;2023-05-03T05:13:45;16.50;96.10
15690;DHT22;7945;48.816;11.506;2023-05-03T05:16:12;17.20;95.00
15690;DHT22;7945;48.816;11.506;2023-05-03T05:18:40;17.80;94.00
15690;DHT22;7945;48.816;11.506;2023-05-03T05:21:06;18.20;93.50
15690;DHT22;7945;48.816;11.506;2023-05-03T05:23:34;18.60;92.90
15690;DHT22;7945;48.816;11.506;2023-05-03T05:26:01;19.10;92.30
15690;DHT22;7945;48.816;11.506;2023-05-03T05:28:29;19.60;91.50
15690;DHT22;7945;48.816;11.506;2023-05-03T05:30:56;20.00;90.70
15690;DHT22;7945;48.816;11.506;2023-05-03T05:33:23;20.30;90.10
15690;DHT22;7945;48.816;11.506;2023-05-03T05:35:50;20.50;89.00
15690;DHT22;7945;48.816;11.506;2023-05-03T05:38:17;20.70;87.20
15690;DHT22;7945;48.816;11.506;2023-05-03T05:40:45;20.70;87.30
15690;DHT22;7945;48.816;11.506;2023-05-03T05:43:11;20.50;88.00
15690;DHT22;7945;48.816;11.506;2023-05-03T05:45:38;20.30;88.30
15690;DHT22;7945;48.816;11.506;2023-05-03T05:48:05;19.90;89.00
15690;DHT22;7945;48.816;11.506;2023-05-03T05:50:32;19.50;89.20
15690;DHT22;7945;48.816;11.506;2023-05-03T05:52:59;19.10;90.50
15690;DHT22;7945;48.816;11.506;2023-05-03T05:55:26;18.50;91.00
15690;DHT22;7945;48.816;11.506;2023-05-03T05:57:54;18.00;91.60
15690;DHT22;7945;48.816;11.506;2023-05-03T06:00:21;17.40;92.50
15690;DHT22;7945;48.816;11.506;2023-05-03T06:02:48;17.10;93.40
15690;DHT22;7945;48.816;11.506;2023-05-03T06:05:16;17.20;93.60
15690;DHT22;7945;48.816;11.506;2023-05-03T06:07:42;17.40;93.30
15690;DHT22;7945;48.816;11.506;2023-05-03T06:10:10;17.60;93.10
15690;DHT22;7945;48.816;11.506;2023-05-03T06:15:21;17.80;93.30
15690;DHT22;7945;48.816;11.506;2023-05-03T06:17:48;17.10;93.70
15690;DHT22;7945;48.816;11.506;2023-05-03T06:20:15;16.80;94.00
15690;DHT22;7945;48.816;11.506;2023-05-03T06:22:41;16.50;94.20
15690;DHT22;7945;48.816;11.506;2023-05-03T06:25:08;16.00;94.80
15690;DHT22;7945;48.816;11.506;2023-05-03T06:27:38;15.60;95.70
15690;DHT22;7945;48.816;11.506;2023-05-03T06:30:06;15.50;96.10
15690;DHT22;7945;48.816;11.506;2023-05-03T06:32:34;15.40;96.40
15690;DHT22;7945;48.816;11.506;2023-05-03T06:35:01;15.30;96.60
15690;DHT22;7945;48.816;11.506;2023-05-03T06:37:28;15.10;96.70
15690;DHT22;7945;48.816;11.506;2023-05-03T06:39:55;15.00;97.30
15690;DHT22;7945;48.816;11.506;2023-05-03T06:42:22;14.70;97.40
15690;DHT22;7945;48.816;11.506;2023-05-03T06:44:49;14.60;98.10
15690;DHT22;7945;48.816;11.506;2023-05-03T06:47:15;14.50;98.30
15690;DHT22;7945;48.816;11.506;2023-05-03T06:49:46;14.50;98.30
15690;DHT22;7945;48.816;11.506;2023-05-03T06:52:12;14.50;98.30
15690;DHT22;7945;48.816;11.506;2023-05-03T06:54:39;14.60;98.50
15690;DHT22;7945;48.816;11.506;2023-05-03T06:57:06;14.70;98.30
15690;DHT22;7945;48.816;11.506;2023-05-03T06:59:33;14.70;98.00
15690;DHT22;7945;48.816;11.506;2023-05-03T07:01:59;14.50;98.20
15690;DHT22;7945;48.816;11.506;2023-05-03T07:04:26;14.30;98.70
15690;DHT22;7945;48.816;11.506;2023-05-03T07:06:55;14.30;98.80
15690;DHT22;7945;48.816;11.506;2023-05-03T07:09:22;14.30;99.40
15690;DHT22;7945;48.816;11.506;2023-05-03T07:11:49;14.40;99.10
15690;DHT22;7945;48.816;11.506;2023-05-03T07:14:16;14.40;99.10
15690;DHT22;7945;48.816;11.506;2023-05-03T07:16:43;14.50;99.00
15690;DHT22;7945;48.816;11.506;2023-05-03T07:19:10;14.50;98.80
15690;DHT22;7945;48.816;11.506;2023-05-03T07:21:37;14.40;98.90
15690;DHT22;7945;48.816;11.506;2023-05-03T07:24:05;14.40;99.20
15690;DHT22;7945;48.816;11.506;2023-05-03T07:26:33;14.40;99.60
15690;DHT22;7945;48.816;11.506;2023-05-03T07:28:59;14.40;99.70
15690;DHT22;7945;48.816;11.506;2023-05-03T07:31:26;14.50;99.90
15690;DHT22;7945;48.816;11.506;2023-05-03T07:33:53;14.50;99.90
15690;DHT22;7945;48.816;11.506;2023-05-03T07:36:19;14.50;99.60
15690;DHT22;7945;48.816;11.506;2023-05-03T07:38:46;14.40;99.90
15690;DHT22;7945;48.816;11.506;2023-05-03T07:41:14;14.40;99.90
15690;DHT22;7945;48.816;11.506;2023-05-03T07:43:41;14.40;99.90
15690;DHT22;7945;48.816;11.506;2023-05-03T07:46:08;14.40;99.90
15690;DHT22;7945;48.816;11.506;2023-05-03T07:48:35;14.50;99.90
15690;DHT22;7945;48.816;11.506;2023-05-03T07:51:02;14.50;99.90
15690;DHT22;7945;48.816;11.506;2023-05-03T07:53:29;14.40;99.90
15690;DHT22;7945;48.816;11.506;2023-05-03T07:55:56;14.40;99.90
15690;DHT22;7945;48.816;11.506;2023-05-03T07:58:24;14.40;99.90
15690;DHT22;7945;48.816;11.506;2023-05-03T08:00:51;14.50;99.90
15690;DHT22;7945;48.816;11.506;2023-05-03T08:03:17;14.50;99.90
15690;DHT22;7945;48.816;11.506;2023-05-03T08:05:45;14.50;99.90
15690;DHT22;7945;48.816;11.506;2023-05-03T08:08:12;14.50;99.90
15690;DHT22;7945;48.816;11.506;2023-05-03T08:10:39;14.60;99.90
15690;DHT22;7945;48.816;11.506;2023-05-03T08:13:06;14.60;99.90
15690;DHT22;7945;48.816;11.506;2023-05-03T08:15:34;14.80;99.90
15690;DHT22;7945;48.816;11.506;2023-05-03T08:18:01;14.80;99.90
15690;DHT22;7945;48.816;11.506;2023-05-03T08:20:28;14.90;99.90
15690;DHT22;7945;48.816;11.506;2023-05-03T08:22:55;14.90;99.90
15690;DHT22;7945;48.816;11.506;2023-05-03T08:25:22;15.00;99.90
15690;DHT22;7945;48.816;11.506;2023-05-03T08:27:50;15.10;99.90
15690;DHT22;7945;48.816;11.506;2023-05-03T08:30:17;15.40;99.90
15690;DHT22;7945;48.816;11.506;2023-05-03T08:32:45;15.50;99.80
15690;DHT22;7945;48.816;11.506;2023-05-03T08:35:12;15.50;99.40
15690;DHT22;7945;48.816;11.506;2023-05-03T08:37:40;15.50;99.50
15690;DHT22;7945;48.816;11.506;2023-05-03T08:40:08;15.50;99.60
15690;DHT22;7945;48.816;11.506;2023-05-03T08:42:38;15.50;99.70
15690;DHT22;7945;48.816;11.506;2023-05-03T08:45:08;15.50;99.60
15690;DHT22;7945;48.816;11.506;2023-05-03T08:47:36;15.40;99.80
15690;DHT22;7945;48.816;11.506;2023-05-03T08:50:07;15.30;99.70
15690;DHT22;7945;48.816;11.506;2023-05-03T08:52:34;15.20;99.90
15690;DHT22;7945;48.816;11.506;2023-05-03T08:55:02;15.20;99.90
15690;DHT22;7945;48.816;11.506;2023-05-03T08:57:29;15.20;99.90
15690;DHT22;7945;48.816;11.506;2023-05-03T08:59:57;15.10;99.90
15690;DHT22;7945;48.816;11.506;2023-05-03T09:02:26;15.10;99.90
15690;DHT22;7945;48.816;11.506;2023-05-03T09:04:53;15.20;99.90
15690;DHT22;7945;48.816;11.506;2023-05-03T09:07:21;15.20;99.90
15690;DHT22;7945;48.816;11.506;2023-05-03T09:09:48;15.30;99.90
15690;DHT22;7945;48.816;11.506;2023-05-03T09:12:32;15.30;99.80
15690;DHT22;7945;48.816;11.506;2023-05-03T09:15:00;15.30;99.80
15690;DHT22;7945;48.816;11.506;2023-05-03T09:17:28;15.40;99.90
15690;DHT22;7945;48.816;11.506;2023-05-03T09:19:56;15.40;99.60
15690;DHT22;7945;48.816;11.506;2023-05-03T09:22:30;15.50;99.80
15690;DHT22;7945;48.816;11.506;2023-05-03T09:24:58;15.50;99.50
15690;DHT22;7945;48.816;11.506;2023-05-03T09:27:26;15.40;99.70
15690;DHT22;7945;48.816;11.506;2023-05-03T09:29:53;15.40;99.90
15690;DHT22;7945;48.816;11.506;2023-05-03T09:32:20;15.40;99.80
15690;DHT22;7945;48.816;11.506;2023-05-03T09:34:49;15.40;99.60
15690;DHT22;7945;48.816;11.506;2023-05-03T09:37:16;15.40;99.80
15690;DHT22;7945;48.816;11.506;2023-05-03T09:39:45;15.40;99.00
15690;DHT22;7945;48.816;11.506;2023-05-03T09:42:13;15.50;99.30
15690;DHT22;7945;48.816;11.506;2023-05-03T09:44:42;15.60;99.00
15690;DHT22;7945;48.816;11.506;2023-05-03T09:47:10;15.70;98.80
15690;DHT22;7945;48.816;11.506;2023-05-03T09:49:37;15.80;98.10
15690;DHT22;7945;48.816;11.506;2023-05-03T09:52:04;16.00;98.30
15690;DHT22;7945;48.816;11.506;2023-05-03T09:54:33;16.20;98.20
15690;DHT22;7945;48.816;11.506;2023-05-03T09:57:02;16.20;98.20
15690;DHT22;7945;48.816;11.506;2023-05-03T09:59:30;16.40;97.50
15690;DHT22;7945;48.816;11.506;2023-05-03T10:01:58;16.50;97.90
15690;DHT22;7945;48.816;11.506;2023-05-03T10:04:26;16.70;97.90
15690;DHT22;7945;48.816;11.506;2023-05-03T10:06:58;16.80;96.80
15690;DHT22;7945;48.816;11.506;2023-05-03T10:09:29;16.80;96.00
15690;DHT22;7945;48.816;11.506;2023-05-03T10:11:59;16.90;96.40
15690;DHT22;7945;48.816;11.506;2023-05-03T10:14:28;16.90;95.50
15690;DHT22;7945;48.816;11.506;2023-05-03T10:16:59;17.00;95.60
15690;DHT22;7945;48.816;11.506;2023-05-03T10:19:30;17.20;95.60
15690;DHT22;7945;48.816;11.506;2023-05-03T10:22:02;17.20;93.70
15690;DHT22;7945;48.816;11.506;2023-05-03T10:24:29;17.20;94.10
15690;DHT22;7945;48.816;11.506;2023-05-03T10:26:56;17.30;95.00
15690;DHT22;7945;48.816;11.506;2023-05-03T10:29:45;17.30;94.90
15690;DHT22;7945;48.816;11.506;2023-05-03T10:32:33;17.40;95.30
15690;DHT22;7945;48.816;11.506;2023-05-03T10:35:01;17.50;94.10
15690;DHT22;7945;48.816;11.506;2023-05-03T10:37:28;17.50;94.30
15690;DHT22;7945;48.816;11.506;2023-05-03T10:39:55;17.50;94.60
15690;DHT22;7945;48.816;11.506;2023-05-03T10:42:31;17.60;95.20
15690;DHT22;7945;48.816;11.506;2023-05-03T10:44:59;17.70;94.60
15690;DHT22;7945;48.816;11.506;2023-05-03T10:47:27;17.90;94.90
15690;DHT22;7945;48.816;11.506;2023-05-03T10:50:26;18.00;94.10
15690;DHT22;7945;48.816;11.506;2023-05-03T10:52:52;18.00;93.70
15690;DHT22;7945;48.816;11.506;2023-05-03T10:55:21;18.00;93.60
15690;DHT22;7945;48.816;11.506;2023-05-03T10:57:52;18.10;93.20
15690;DHT22;7945;48.816;11.506;2023-05-03T11:00:26;18.20;93.70
15690;DHT22;7945;48.816;11.506;2023-05-03T11:03:29;18.30;93.60
15690;DHT22;7945;48.816;11.506;2023-05-03T11:05:57;18.50;92.30
15690;DHT22;7945;48.816;11.506;2023-05-03T11:08:24;18.70;92.10
15690;DHT22;7945;48.816;11.506;2023-05-03T11:10:57;18.60;91.50
15690;DHT22;7945;48.816;11.506;2023-05-03T11:13:24;18.60;91.30
15690;DHT22;7945;48.816;11.506;2023-05-03T11:15:53;18.70;91.70
15690;DHT22;7945;48.816;11.506;2023-05-03T11:18:21;18.80;91.50
15690;DHT22;7945;48.816;11.506;2023-05-03T11:20:48;19.00;91.20
15690;DHT22;7945;48.816;11.506;2023-05-03T11:23:15;18.90;91.60
15690;DHT22;7945;48.816;11.506;2023-05-03T11:25:42;18.80;92.10
15690;DHT22;7945;48.816;11.506;2023-05-03T11:28:08;19.00;91.90
15690;DHT22;7945;48.816;11.506;2023-05-03T11:30:35;19.20;91.40
15690;DHT22;7945;48.816;11.506;2023-05-03T11:33:04;19.30;91.20
15690;DHT22;7945;48.816;11.506;2023-05-03T11:35:31;19.30;90.80
15690;DHT22;7945;48.816;11.506;2023-05-03T11:37:58;19.20;90.80
15690;DHT22;7945;48.816;11.506;2023-05-03T11:40:25;19.00;91.20
15690;DHT22;7945;48.816;11.506;2023-05-03T11:42:53;18.90;91.30
15690;DHT22;7945;48.816;11.506;2023-05-03T11:45:21;18.80;91.20
15690;DHT22;7945;48.816;11.506;2023-05-03T11:47:49;18.70;91.10
15690;DHT22;7945;48.816;11.506;2023-05-03T11:50:22;18.70;91.10
15690;DHT22;7945;48.816;11.506;2023-05-03T11:52:52;18.50;91.00
15690;DHT22;7945;48.816;11.506;2023-05-03T11:55:20;18.50;91.30
15690;DHT22;7945;48.816;11.506;2023-05-03T11:57:47;18.40;91.40
15690;DHT22;7945;48.816;11.506;2023-05-03T12:00:15;18.40;91.20
15690;DHT22;7945;48.816;11.506;2023-05-03T12:02:43;18.20;91.40
15690;DHT22;7945;48.816;11.506;2023-05-03T12:05:10;18.00;91.60
15690;DHT22;7945;48.816;11.506;2023-05-03T12:07:38;18.10;91.20
15690;DHT22;7945;48.816;11.506;2023-05-03T12:10:13;18.20;91.00
15690;DHT22;7945;48.816;11.506;2023-05-03T12:12:53;18.20;91.00
15690;DHT22;7945;48.816;11.506;2023-05-03T12:15:31;18.20;90.80
15690;DHT22;7945;48.816;11.506;2023-05-03T12:17:59;18.20;91.10
15690;DHT22;7945;48.816;11.506;2023-05-03T12:20:27;18.10;91.00
15690;DHT22;7945;48.816;11.506;2023-05-03T12:23:00;18.10;90.90
15690;DHT22;7945;48.816;11.506;2023-05-03T12:25:28;18.10;90.90
15690;DHT22;7945;48.816;11.506;2023-05-03T12:27:57;18.10;90.50
15690;DHT22;7945;48.816;11.506;2023-05-03T12:30:24;18.10;90.60
15690;DHT22;7945;48.816;11.506;2023-05-03T12:32:51;18.10;90.70
15690;DHT22;7945;48.816;11.506;2023-05-03T12:35:18;18.30;90.90
15690;DHT22;7945;48.816;11.506;2023-05-03T12:37:46;18.60;90.00
15690;DHT22;7945;48.816;11.506;2023-05-03T12:40:16;18.80;89.30
15690;DHT22;7945;48.816;11.506;2023-05-03T12:42:44;19.10;88.50
15690;DHT22;7945;48.816;11.506;2023-05-03T12:45:11;19.30;87.20
15690;DHT22;7945;48.816;11.506;2023-05-03T12:47:39;19.50;87.40
15690;DHT22;7945;48.816;11.506;2023-05-03T12:50:07;19.70;86.70
15690;DHT22;7945;48.816;11.506;2023-05-03T12:52:36;19.80;83.40
15690;DHT22;7945;48.816;11.506;2023-05-03T12:55:04;19.80;81.80
15690;DHT22;7945;48.816;11.506;2023-05-03T12:57:32;19.80;80.80
15690;DHT22;7945;48.816;11.506;2023-05-03T12:59:59;19.70;82.30
15690;DHT22;7945;48.816;11.506;2023-05-03T13:02:27;19.50;82.60
15690;DHT22;7945;48.816;11.506;2023-05-03T13:04:54;19.40;84.70
15690;DHT22;7945;48.816;11.506;2023-05-03T13:07:22;19.30;85.80
15690;DHT22;7945;48.816;11.506;2023-05-03T13:09:50;19.20;85.50
15690;DHT22;7945;48.816;11.506;2023-05-03T13:12:17;19.10;84.30
15690;DHT22;7945;48.816;11.506;2023-05-03T13:14:48;19.00;84.80
15690;DHT22;7945;48.816;11.506;2023-05-03T13:17:18;19.10;85.70
15690;DHT22;7945;48.816;11.506;2023-05-03T13:19:47;19.20;84.40
15690;DHT22;7945;48.816;11.506;2023-05-03T13:22:15;19.20;82.10
15690;DHT22;7945;48.816;11.506;2023-05-03T13:24:43;19.30;84.20
15690;DHT22;7945;48.816;11.506;2023-05-03T13:27:10;19.30;84.90
15690;DHT22;7945;48.816;11.506;2023-05-03T13:29:37;19.40;84.10
15690;DHT22;7945;48.816;11.506;2023-05-03T13:32:06;19.40;83.80
15690;DHT22;7945;48.816;11.506;2023-05-03T13:34:34;19.30;84.80
15690;DHT22;7945;48.816;11.506;2023-05-03T13:37:01;19.40;83.80
15690;DHT22;7945;48.816;11.506;2023-05-03T13:39:30;19.50;83.50
15690;DHT22;7945;48.816;11.506;2023-05-03T13:41:57;19.60;82.70
15690;DHT22;7945;48.816;11.506;2023-05-03T13:44:24;19.70;81.50
15690;DHT22;7945;48.816;11.506;2023-05-03T13:46:51;19.70;81.80
15690;DHT22;7945;48.816;11.506;2023-05-03T13:49:20;19.80;81.40
15690;DHT22;7945;48.816;11.506;2023-05-03T13:51:47;19.90;81.10
15690;DHT22;7945;48.816;11.506;2023-05-03T13:54:14;19.90;80.00
15690;DHT22;7945;48.816;11.506;2023-05-03T13:56:41;19.90;79.80
15690;DHT22;7945;48.816;11.506;2023-05-03T13:59:11;19.90;77.90
15690;DHT22;7945;48.816;11.506;2023-05-03T14:01:39;19.80;78.90
15690;DHT22;7945;48.816;11.506;2023-05-03T14:04:07;19.80;80.40
15690;DHT22;7945;48.816;11.506;2023-05-03T14:06:36;19.90;79.90
15690;DHT22;7945;48.816;11.506;2023-05-03T14:09:04;20.00;79.00
15690;DHT22;7945;48.816;11.506;2023-05-03T14:11:32;20.10;79.40
15690;DHT22;7945;48.816;11.506;2023-05-03T14:13:59;20.00;79.80
15690;DHT22;7945;48.816;11.506;2023-05-03T14:16:26;20.10;78.00
15690;DHT22;7945;48.816;11.506;2023-05-03T14:18:53;19.90;75.60
15690;DHT22;7945;48.816;11.506;2023-05-03T14:21:21;19.80;74.90
15690;DHT22;7945;48.816;11.506;2023-05-03T14:23:50;19.70;76.40
15690;DHT22;7945;48.816;11.506;2023-05-03T14:26:18;19.70;74.00
15690;DHT22;7945;48.816;11.506;2023-05-03T14:28:45;19.70;76.30
15690;DHT22;7945;48.816;11.506;2023-05-03T14:31:12;19.90;74.90
15690;DHT22;7945;48.816;11.506;2023-05-03T14:33:39;20.00;74.70
15690;DHT22;7945;48.816;11.506;2023-05-03T14:36:06;20.00;74.30
15690;DHT22;7945;48.816;11.506;2023-05-03T14:38:34;20.00;74.20
15690;DHT22;7945;48.816;11.506;2023-05-03T14:41:03;20.10;74.90
15690;DHT22;7945;48.816;11.506;2023-05-03T14:43:31;20.20;75.20
15690;DHT22;7945;48.816;11.506;2023-05-03T14:45:58;20.10;73.60
15690;DHT22;7945;48.816;11.506;2023-05-03T14:48:26;20.10;73.90
15690;DHT22;7945;48.816;11.506;2023-05-03T14:50:53;20.10;74.40
15690;DHT22;7945;48.816;11.506;2023-05-03T14:53:21;20.10;75.00
15690;DHT22;7945;48.816;11.506;2023-05-03T14:55:48;20.00;75.40
15690;DHT22;7945;48.816;11.506;2023-05-03T14:58:17;19.90;75.00
15690;DHT22;7945;48.816;11.506;2023-05-03T15:00:44;19.80;74.90
15690;DHT22;7945;48.816;11.506;2023-05-03T15:03:12;19.80;73.40
15690;DHT22;7945;48.816;11.506;2023-05-03T15:05:43;19.80;73.50
15690;DHT22;7945;48.816;11.506;2023-05-03T15:08:12;19.70;70.50
15690;DHT22;7945;48.816;11.506;2023-05-03T15:10:40;19.60;70.60
15690;DHT22;7945;48.816;11.506;2023-05-03T15:13:09;19.50;72.40
15690;DHT22;7945;48.816;11.506;2023-05-03T15:15:37;19.40;71.70
15690;DHT22;7945;48.816;11.506;2023-05-03T15:18:06;19.30;72.40
15690;DHT22;7945;48.816;11.506;2023-05-03T15:20:33;19.40;72.50
15690;DHT22;7945;48.816;11.506;2023-05-03T15:23:02;19.50;73.10
15690;DHT22;7945;48.816;11.506;2023-05-03T15:25:29;19.70;72.70
15690;DHT22;7945;48.816;11.506;2023-05-03T15:27:56;19.80;71.10
15690;DHT22;7945;48.816;11.506;2023-05-03T15:30:24;19.80;70.80
15690;DHT22;7945;48.816;11.506;2023-05-03T15:32:52;19.80;71.50
15690;DHT22;7945;48.816;11.506;2023-05-03T15:35:19;19.80;72.20
15690;DHT22;7945;48.816;11.506;2023-05-03T15:37:46;19.90;72.00
15690;DHT22;7945;48.816;11.506;2023-05-03T15:40:14;19.90;72.40